Time;durP1;ratioP1;P1;durP2;ratioP2;P2;SDS_P1;SDS_P2;PMS_P1;PMS_P2;Temp;Humidity;BMP_temperature;BMP_pressure;BME280_temperature;BME280_humidity;BME280_pressure;Samples;Min_cycle;Max_cycle;Signal;HPM_P1;HPM_P2
2022/06/01 00:01:07;;;;;;;14.07;6.55;;;;;;;16.64;92.84;95008.28;5015416;28;20245;-79
2022/06/01 00:03:35;;;;;;;13.80;7.15;;;;;;;16.63;92.46;95000.53;5033231;28;20191;-79
2022/06/01 00:06:01;;;;;;;10.45;5.97;;;;;;;16.50;92.58;94981.22;5033118;28;20179;-79
2022/06/01 00:08:27;;;;;;;8.57;7.00;;;;;;;16.63;94.01;94993.38;5032769;28;20690;-79
2022/06/01 00:10:53;;;;;;;11.90;6.63;;;;;;;16.63;93.40;94995.22;5033253;28;20258;-79
2022/06/01 00:13:20;;;;;;;8.40;6.35;;;;;;;16.61;93.18;95000.78;5014991;28;20617;-79
2022/06/01 00:15:46;;;;;;;13.48;7.57;;;;;;;16.65;93.96;94998.47;5033146;28;20182;-79
2022/06/01 00:18:11;;;;;;;13.05;7.97;;;;;;;16.66;95.11;94995.56;5032556;28;20188;-79
2022/06/01 00:20:37;;;;;;;14.45;7.85;;;;;;;16.69;95.28;94997.72;5032927;28;20229;-79
2022/06/01 00:23:03;;;;;;;9.63;7.00;;;;;;;16.70;94.93;94993.19;5032496;28;20682;-79
2022/06/01 00:25:29;;;;;;;12.07;6.93;;;;;;;16.72;94.76;94999.88;5032547;28;20279;-79
2022/06/01 00:27:54;;;;;;;10.02;7.18;;;;;;;16.72;94.18;95004.41;5014921;28;20203;-79
2022/06/01 00:30:21;;;;;;;10.93;7.97;;;;;;;16.75;93.64;95007.38;5032467;28;20302;-79
2022/06/01 00:32:47;;;;;;;17.60;8.82;;;;;;;16.61;94.27;94990.16;5014645;28;20629;-78
2022/06/01 00:35:15;;;;;;;14.18;9.30;;;;;;;16.73;94.70;95006.00;5032331;28;20267;-79
2022/06/01 00:37:41;;;;;;;13.27;8.27;;;;;;;16.74;94.75;94997.00;5032611;28;20660;-78
2022/06/01 00:40:07;;;;;;;12.65;7.75;;;;;;;16.64;94.53;94986.22;5032544;28;20194;-78
2022/06/01 00:42:35;;;;;;;12.70;7.40;;;;;;;16.70;94.15;95001.97;5032179;28;20200;-79
2022/06/01 00:45:01;;;;;;;13.43;8.70;;;;;;;16.49;93.62;94961.00;5032310;28;20206;-79
2022/06/01 00:47:28;;;;;;;14.02;8.73;;;;;;;16.70;93.70;95001.16;5032458;28;20573;-79
2022/06/01 00:50:07;;;;;;;9.10;6.38;;;;;;;16.70;93.67;94993.19;5032576;28;20207;-78
2022/06/01 00:52:36;;;;;;;14.82;7.47;;;;;;;16.65;93.20;94993.94;5031929;28;20164;-78
2022/06/01 00:55:19;;;;;;;11.05;7.05;;;;;;;16.61;93.45;94992.81;5032323;28;20184;-78
2022/06/01 00:57:48;;;;;;;14.65;7.90;;;;;;;16.63;93.02;94995.22;5032292;28;20559;-78
2022/06/01 01:00:22;;;;;;;13.55;7.47;;;;;;;16.56;92.80;95000.69;5032041;28;20187;-79
2022/06/01 01:02:51;;;;;;;11.60;6.60;;;;;;;16.40;92.77;94969.63;5032047;28;20268;-79
2022/06/01 01:05:18;;;;;;;12.48;7.50;;;;;;;16.54;93.12;94992.97;5031854;28;20183;-79
2022/06/01 01:07:44;;;;;;;15.90;7.53;;;;;;;16.51;92.87;95001.44;5031856;28;20179;-79
2022/06/01 01:10:12;;;;;;;13.10;7.65;;;;;;;16.47;92.86;94986.22;5031970;28;20172;-79
2022/06/01 01:12:57;;;;;;;13.85;7.68;;;;;;;16.46;92.62;94988.06;5011136;28;20223;-78
2022/06/01 01:15:26;;;;;;;11.15;7.07;;;;;;;16.22;92.04;94952.91;5023586;28;20558;-78
2022/06/01 01:17:54;;;;;;;16.20;6.97;;;;;;;16.33;92.09;94983.09;5031866;28;20179;-78
2022/06/01 01:20:20;;;;;;;10.07;7.27;;;;;;;16.15;92.15;94962.09;5031719;28;20183;-79
2022/06/01 01:22:57;;;;;;;14.40;7.88;;;;;;;16.23;91.88;94973.13;5031720;28;20214;-78
2022/06/01 01:25:28;;;;;;;14.57;7.63;;;;;;;16.10;92.29;94956.69;5032007;28;20183;-78
2022/06/01 01:27:56;;;;;;;19.15;8.50;;;;;;;16.09;92.74;94963.84;5031860;28;20184;-79
2022/06/01 01:30:25;;;;;;;14.43;7.77;;;;;;;16.07;93.11;94979.25;5012457;28;20228;-78
2022/06/01 01:32:51;;;;;;;11.53;8.20;;;;;;;16.07;93.31;94963.31;5031971;28;20167;-78
2022/06/01 01:35:17;;;;;;;12.75;8.85;;;;;;;16.10;93.45;94964.66;5031822;28;20187;-78
2022/06/01 01:37:43;;;;;;;20.17;8.18;;;;;;;15.90;92.94;94929.84;5031734;28;20172;-78
2022/06/01 01:40:09;;;;;;;19.13;8.70;;;;;;;16.05;92.84;94960.09;5031655;28;20206;-78
2022/06/01 01:42:35;;;;;;;16.38;7.53;;;;;;;15.95;92.73;94940.53;5031294;28;20206;-78
2022/06/01 01:45:26;;;;;;;16.88;7.82;;;;;;;16.02;92.91;94963.22;5031624;28;20187;-78
2022/06/01 01:47:52;;;;;;;13.88;7.28;;;;;;;16.03;93.02;94964.81;5034269;28;20178;-78
2022/06/01 01:50:18;;;;;;;23.33;8.45;;;;;;;15.96;93.10;94948.25;5035336;28;20191;-78
2022/06/01 01:52:44;;;;;;;12.00;7.40;;;;;;;15.89;92.88;94941.50;5035592;28;20553;-78
2022/06/01 01:55:27;;;;;;;11.93;8.23;;;;;;;15.94;93.08;94955.66;5035759;28;20179;-78
2022/06/01 01:58:01;;;;;;;16.27;8.17;;;;;;;15.99;93.13;94957.59;5030960;28;20179;-78
2022/06/01 02:00:36;;;;;;;17.52;8.57;;;;;;;15.94;93.30;94960.16;5035004;28;20179;-78
2022/06/01 02:03:30;;;;;;;25.50;8.53;;;;;;;15.96;93.53;94958.06;5035457;28;20579;-78
2022/06/01 02:06:04;;;;;;;12.70;7.50;;;;;;;15.99;93.67;94966.38;5035435;28;20183;-78
2022/06/01 02:08:35;;;;;;;13.73;8.57;;;;;;;15.95;93.56;94967.09;5027260;28;20658;-78
2022/06/01 02:13:57;;;;;;;15.88;7.68;;;;;;;15.68;93.40;94937.69;5035262;28;20187;-79
2022/06/01 02:16:27;;;;;;;9.67;6.70;;;;;;;15.49;93.04;94911.34;5035107;28;20617;-79
2022/06/01 02:18:55;;;;;;;11.10;7.13;;;;;;;15.91;92.67;94973.94;5034898;28;20172;-79
2022/06/01 02:21:25;;;;;;;14.93;6.40;;;;;;;15.90;92.31;94970.47;5026370;28;20199;-79
2022/06/01 02:23:53;;;;;;;18.07;7.63;;;;;;;15.70;91.90;94949.69;5034985;28;20661;-79
2022/06/01 02:26:20;;;;;;;11.17;6.30;;;;;;;15.53;91.76;94921.50;5034885;28;20278;-79
2022/06/01 02:28:48;;;;;;;10.50;5.53;;;;;;;15.72;92.05;94968.03;5034675;28;20172;-79
2022/06/01 02:31:16;;;;;;;12.13;5.97;;;;;;;15.60;92.09;94959.31;5034502;28;20269;-79
2022/06/01 02:33:44;;;;;;;11.03;5.57;;;;;;;15.56;92.42;94974.13;5034840;28;20198;-79
2022/06/01 02:36:14;;;;;;;13.10;5.83;;;;;;;15.59;92.27;94981.59;5034447;28;20651;-79
2022/06/01 02:38:43;;;;;;;10.03;5.13;;;;;;;15.53;92.65;94971.91;5035342;28;20207;-79
2022/06/01 02:42:25;;;;;;;11.60;5.33;;;;;;;15.49;92.52;94979.53;5034404;28;20260;-79
2022/06/01 02:43:57;;;;;;;6.83;5.03;;;;;;;15.48;92.76;94978.72;5025860;28;20219;-79
2022/06/01 02:46:23;;;;;;;8.55;5.00;;;;;;;15.41;92.49;94975.41;5034505;28;20231;-79
2022/06/01 02:48:50;;;;;;;12.77;5.23;;;;;;;15.47;92.46;94982.44;5034762;28;20168;-79
2022/06/01 02:51:18;;;;;;;8.00;4.50;;;;;;;15.51;92.62;94988.06;5034479;28;20652;-79
2022/06/01 02:53:46;;;;;;;6.43;4.37;;;;;;;15.39;92.51;94968.75;5034535;28;20616;-79
2022/06/01 02:56:13;;;;;;;5.90;4.70;;;;;;;15.32;92.18;94954.81;5034465;28;20188;-79
2022/06/01 02:58:39;;;;;;;6.67;4.73;;;;;;;15.47;92.43;94986.94;5034394;28;20548;-79
2022/06/01 03:01:06;;;;;;;6.80;4.37;;;;;;;15.48;92.48;94989.34;5033967;28;20572;-79
2022/06/01 03:03:32;;;;;;;9.27;4.43;;;;;;;15.50;92.36;94986.44;5031468;28;20163;-79
2022/06/01 03:05:58;;;;;;;7.43;4.97;;;;;;;15.17;92.37;94934.13;5033705;28;20187;-79
2022/06/01 03:08:23;;;;;;;6.03;5.00;;;;;;;15.47;92.41;94987.75;5033898;28;20254;-79
2022/06/01 03:10:49;;;;;;;12.27;4.87;;;;;;;15.53;91.88;94999.25;5014754;28;20169;-79
2022/06/01 03:13:15;;;;;;;8.60;4.47;;;;;;;15.22;92.09;94950.13;5033650;28;20169;-79
2022/06/01 03:15:41;;;;;;;7.60;5.00;;;;;;;15.52;92.00;94995.00;5033713;28;20233;-78
2022/06/01 03:18:06;;;;;;;65.10;35.90;;;;;;;15.48;92.01;94991.19;5033809;28;20722;-78
2022/06/01 03:20:33;;;;;;;88.70;47.97;;;;;;;15.47;92.97;94982.44;5033550;28;20563;-79
2022/06/01 03:23:00;;;;;;;92.03;47.40;;;;;;;15.64;92.84;95003.75;5033347;28;20214;-78
2022/06/01 03:25:27;;;;;;;62.55;32.08;;;;;;;15.41;92.88;94956.03;5033620;28;20191;-78
2022/06/01 03:27:57;;;;;;;50.47;24.92;;;;;;;15.47;93.30;94952.44;5015399;28;20164;-78
2022/06/01 03:30:24;;;;;;;23.27;10.23;;;;;;;15.87;92.38;95005.47;5015446;28;20215;-78
2022/06/01 03:32:50;;;;;;;20.63;10.52;;;;;;;15.95;92.64;95006.91;5015781;28;20175;-78
2022/06/01 03:35:19;;;;;;;25.70;13.75;;;;;;;15.92;92.49;94981.63;5033308;28;20262;-79
2022/06/01 03:37:45;;;;;;;21.15;9.50;;;;;;;16.06;91.59;94995.41;5033544;28;20176;-79
2022/06/01 03:40:12;;;;;;;18.08;8.73;;;;;;;16.14;91.94;95009.09;5033122;28;20200;-79
2022/06/01 03:42:38;;;;;;;18.35;8.80;;;;;;;16.15;91.52;94993.97;5033256;28;20206;-79
2022/06/01 03:47:49;;;;;;;27.70;12.00;;;;;;;16.39;91.30;95007.88;5031659;28;20225;-79
2022/06/01 03:50:17;;;;;;;17.98;9.35;;;;;;;16.43;90.71;94985.88;5032933;28;20176;-79
2022/06/01 03:52:45;;;;;;;46.38;23.75;;;;;;;16.76;90.16;95006.34;5032913;28;20172;-79
2022/06/01 03:55:12;;;;;;;31.40;18.15;;;;;;;16.86;89.67;95011.00;5032891;28;20171;-79
2022/06/01 03:57:38;;;;;;;30.23;15.73;;;;;;;16.75;90.02;94974.69;5032910;28;20222;-79
2022/06/01 04:00:08;;;;;;;26.10;14.63;;;;;;;17.15;90.34;95007.09;5032749;28;20187;-79
2022/06/01 04:02:34;;;;;;;16.23;9.55;;;;;;;17.27;89.20;94988.34;5032482;28;20706;-79
2022/06/01 04:04:59;;;;;;;20.23;10.68;;;;;;;17.46;87.65;94988.84;5032854;28;20188;-79
2022/06/01 04:07:25;;;;;;;15.18;9.55;;;;;;;17.72;87.11;95012.03;5032991;28;20582;-79
2022/06/01 04:09:51;;;;;;;14.02;9.10;;;;;;;17.46;85.99;94972.88;5032681;28;20164;-79
2022/06/01 04:12:17;;;;;;;16.20;9.48;;;;;;;17.65;86.29;95003.41;5032766;28;20254;-79
2022/06/01 04:14:43;;;;;;;20.10;9.52;;;;;;;17.67;86.90;95009.31;5032648;28;20202;-79
2022/06/01 04:17:08;;;;;;;15.02;9.63;;;;;;;17.67;86.96;95027.94;5032584;28;20180;-78
2022/06/01 04:19:33;;;;;;;14.63;9.65;;;;;;;17.68;86.91;95016.25;5032510;28;20592;-78
2022/06/01 04:21:59;;;;;;;19.90;10.75;;;;;;;17.68;87.14;95006.41;5032794;28;20206;-79
2022/06/01 04:24:31;;;;;;;18.73;9.30;;;;;;;17.78;87.41;95013.69;5033288;28;20229;-79
2022/06/01 04:26:56;;;;;;;16.55;8.55;;;;;;;17.88;87.34;95018.31;5032559;28;20180;-79
2022/06/01 04:29:22;;;;;;;16.95;9.60;;;;;;;17.91;87.14;95015.94;5032769;28;20178;-79
2022/06/01 04:31:48;;;;;;;15.63;9.02;;;;;;;17.95;85.87;95013.56;5032521;28;20244;-79
2022/06/01 04:34:14;;;;;;;18.42;9.57;;;;;;;17.95;85.67;95018.91;5031783;28;20222;-75
2022/06/01 04:36:39;;;;;;;15.23;8.93;;;;;;;17.93;85.65;95015.69;5032071;28;20172;-79
2022/06/01 04:39:06;;;;;;;15.75;9.82;;;;;;;17.92;85.21;95019.41;5031218;28;20190;-79
2022/06/01 04:41:32;;;;;;;20.02;8.95;;;;;;;17.89;85.20;95026.06;5008888;28;20226;-79
2022/06/01 04:43:58;;;;;;;17.77;9.45;;;;;;;17.78;85.34;95015.53;5032302;28;20175;-81
2022/06/01 04:46:23;;;;;;;15.13;8.25;;;;;;;17.64;85.15;94999.16;5032138;28;20180;-82
2022/06/01 04:48:49;;;;;;;14.65;8.00;;;;;;;17.56;85.19;94989.72;5031786;28;20171;-81
2022/06/01 04:51:15;;;;;;;11.43;8.07;;;;;;;17.75;85.32;95024.03;5032845;28;20242;-79
2022/06/01 04:53:44;;;;;;;15.45;8.50;;;;;;;17.75;85.56;95018.69;5032185;28;20167;-80
2022/06/01 04:56:11;;;;;;;19.27;8.88;;;;;;;17.79;85.74;95031.28;5031768;28;20564;-80
2022/06/01 04:58:37;;;;;;;17.90;9.10;;;;;;;17.82;85.81;95037.94;5025359;28;20678;-80
2022/06/01 05:01:03;;;;;;;14.05;8.48;;;;;;;17.69;85.14;95009.88;5000623;28;20259;-80
2022/06/01 05:03:28;;;;;;;14.10;8.60;;;;;;;17.78;85.88;95015.53;5020960;28;20182;-80
2022/06/01 05:05:54;;;;;;;17.25;9.45;;;;;;;17.93;86.12;95039.66;5015151;28;20198;-79
2022/06/01 05:08:19;;;;;;;24.20;9.57;;;;;;;17.88;86.08;95013.78;5031700;28;20607;-80
2022/06/01 05:10:45;;;;;;;16.02;9.18;;;;;;;18.12;85.52;95034.78;5031939;28;20168;-80
2022/06/01 05:13:11;;;;;;;19.27;9.68;;;;;;;18.22;85.42;95049.00;5021727;28;20191;-80
2022/06/01 05:15:49;;;;;;;20.17;9.80;;;;;;;18.40;84.36;95056.63;5030596;28;20203;-80
2022/06/01 05:18:14;;;;;;;19.25;9.13;;;;;;;18.59;84.35;95051.72;5032023;28;20164;-79
2022/06/01 05:20:40;;;;;;;17.73;11.35;;;;;;;18.78;83.81;95044.09;5030910;28;20608;-80
2022/06/01 05:23:06;;;;;;;17.75;10.02;;;;;;;18.76;82.07;95022.25;5031568;28;20294;-80
2022/06/01 05:25:31;;;;;;;17.98;9.63;;;;;;;19.11;82.34;95061.66;5031903;28;20262;-80
2022/06/01 05:27:57;;;;;;;15.98;9.70;;;;;;;19.32;80.41;95044.69;5031788;28;20162;-80
2022/06/01 05:30:22;;;;;;;19.05;10.55;;;;;;;19.56;79.27;95032.50;5000088;28;20264;-80
2022/06/01 05:32:47;;;;;;;18.75;9.93;;;;;;;19.98;77.59;95057.50;4983806;28;20675;-80
2022/06/01 05:35:13;;;;;;;16.10;9.60;;;;;;;20.60;78.11;95052.75;4999323;28;20183;-81
2022/06/01 05:37:38;;;;;;;15.30;9.88;;;;;;;21.59;73.53;95053.09;4980068;28;20263;-81
2022/06/01 05:40:04;;;;;;;13.95;9.05;;;;;;;22.48;71.42;95041.31;5006327;28;20181;-81
2022/06/01 05:42:30;;;;;;;25.75;9.38;;;;;;;23.44;68.61;95061.88;4996755;28;20680;-80
2022/06/01 05:44:55;;;;;;;17.77;9.43;;;;;;;23.99;64.84;95057.75;5009027;28;20208;-78
2022/06/01 05:47:21;;;;;;;18.30;9.32;;;;;;;24.55;62.71;95064.25;5000903;28;20223;-79
2022/06/01 05:49:48;;;;;;;13.70;8.93;;;;;;;24.78;62.74;95029.09;5000698;28;20260;-79
2022/06/01 05:52:18;;;;;;;648.78;299.05;;;;;;;24.97;62.20;95031.78;5000669;28;20185;-78
2022/06/01 05:54:43;;;;;;;654.47;468.65;;;;;;;25.14;61.87;95058.94;4989357;28;20568;-78
2022/06/01 05:57:09;;;;;;;82.43;30.25;;;;;;;25.15;58.68;95068.63;4973201;28;20220;-78
2022/06/01 05:59:34;;;;;;;47.35;29.02;;;;;;;24.90;59.70;95044.81;4973036;28;20182;-79
2022/06/01 06:01:59;;;;;;;37.17;17.05;;;;;;;25.18;60.56;95051.06;5009305;28;20192;-79
2022/06/01 06:04:25;;;;;;;27.42;15.75;;;;;;;25.40;59.93;95035.00;5000313;28;20176;-79
2022/06/01 06:06:50;;;;;;;18.42;9.45;;;;;;;25.78;59.98;95046.41;5000292;28;20664;-79
2022/06/01 06:09:16;;;;;;;17.35;9.23;;;;;;;25.84;59.44;95022.81;5000280;28;20541;-79
2022/06/01 06:11:41;;;;;;;14.57;8.85;;;;;;;26.21;59.62;95054.91;4998918;28;20181;-79
2022/06/01 06:14:08;;;;;;;19.15;9.45;;;;;;;26.32;56.90;95054.72;4991608;28;20248;-79
2022/06/01 06:16:37;;;;;;;18.05;9.68;;;;;;;25.86;57.92;95055.66;4997843;28;20188;-79
2022/06/01 06:19:04;;;;;;;15.57;9.23;;;;;;;25.42;60.31;95013.94;5002372;28;20188;-79
2022/06/01 06:21:30;;;;;;;14.20;9.20;;;;;;;25.77;60.47;95044.78;5003457;28;20223;-79
2022/06/01 06:24:04;;;;;;;21.55;10.38;;;;;;;25.83;60.68;95037.41;4997556;28;20268;-79
2022/06/01 06:26:30;;;;;;;17.52;10.05;;;;;;;25.67;57.25;95042.34;4998430;28;20181;-79
2022/06/01 06:28:56;;;;;;;19.23;9.65;;;;;;;25.51;58.37;95014.81;5000144;28;20960;-79
2022/06/01 06:31:22;;;;;;;15.38;9.70;;;;;;;25.79;59.01;95031.00;5027762;28;20679;-79
2022/06/01 06:33:48;;;;;;;14.75;10.00;;;;;;;25.98;59.25;95042.47;5034123;28;20196;-79
2022/06/01 06:36:14;;;;;;;15.63;9.23;;;;;;;25.84;60.14;95029.03;5012931;28;20238;-79
2022/06/01 06:38:40;;;;;;;16.38;9.52;;;;;;;26.02;60.18;95042.69;5033546;28;20183;-79
2022/06/01 06:41:07;;;;;;;15.82;9.48;;;;;;;26.25;59.01;95050.50;5033698;28;20180;-79
2022/06/01 06:43:35;;;;;;;15.32;8.95;;;;;;;26.47;57.64;95040.84;5033612;28;20175;-79
2022/06/01 06:46:04;;;;;;;20.08;10.18;;;;;;;26.53;57.01;95035.03;5033851;28;20247;-79
2022/06/01 06:48:29;;;;;;;27.60;10.88;;;;;;;26.24;57.91;95038.09;5034303;28;20592;-79
2022/06/01 06:50:56;;;;;;;23.30;11.77;;;;;;;25.80;58.00;95033.41;5034275;28;20196;-79
2022/06/01 06:53:21;;;;;;;20.15;11.57;;;;;;;26.03;57.89;95023.50;5034284;28;20705;-79
2022/06/01 06:55:47;;;;;;;15.68;10.30;;;;;;;26.24;58.46;94996.81;5034127;28;20176;-78
2022/06/01 06:58:13;;;;;;;25.23;11.57;;;;;;;26.74;58.19;95029.13;5034075;28;20698;-79
2022/06/01 07:00:39;;;;;;;14.98;9.93;;;;;;;27.00;58.87;95024.69;5034214;28;20156;-78
2022/06/01 07:03:06;;;;;;;19.95;11.10;;;;;;;27.12;58.68;95016.03;5034149;28;20245;-79
2022/06/01 07:08:16;;;;;;;19.58;11.00;;;;;;;27.48;54.53;94994.22;5034742;28;20210;-79
2022/06/01 07:10:42;;;;;;;21.15;11.10;;;;;;;27.61;54.37;94994.13;5034615;28;20203;-79
2022/06/01 07:13:07;;;;;;;20.42;10.20;;;;;;;27.75;54.44;94992.09;5015569;28;20186;-79
2022/06/01 07:15:33;;;;;;;24.48;10.75;;;;;;;28.03;54.35;95021.56;5034211;28;20186;-79
2022/06/01 07:17:58;;;;;;;19.05;11.85;;;;;;;27.94;52.37;94996.41;5033743;28;20179;-79
2022/06/01 07:20:23;;;;;;;17.25;11.52;;;;;;;27.46;54.69;95005.34;5033661;28;20175;-79
2022/06/01 07:22:49;;;;;;;24.23;11.70;;;;;;;27.61;55.38;95012.25;5033491;28;20688;-80
2022/06/01 07:25:14;;;;;;;21.00;12.07;;;;;;;27.50;54.52;95021.75;5033536;28;20234;-81
2022/06/01 07:27:40;;;;;;;18.48;11.02;;;;;;;27.56;57.32;95007.81;5033644;28;20644;-80
2022/06/01 07:30:07;;;;;;;21.85;12.15;;;;;;;27.78;55.10;95015.00;5033190;28;20302;-80
2022/06/01 07:32:32;;;;;;;29.25;13.13;;;;;;;27.91;55.60;95010.59;5033217;28;20210;-79
2022/06/01 07:34:58;;;;;;;21.25;12.10;;;;;;;27.76;52.55;94982.06;5039828;28;20258;-80
2022/06/01 07:43:06;;;;;;;22.83;13.45;;;;;;;28.42;51.13;95007.94;5033432;28;20226;-79
2022/06/01 07:45:37;;;;;;;21.17;12.20;;;;;;;28.36;53.00;94960.47;5025997;28;20214;-80
2022/06/01 07:48:03;;;;;;;26.00;10.88;;;;;;;28.85;53.05;95007.91;5033674;28;20182;-79
2022/06/01 07:50:29;;;;;;;22.90;12.70;;;;;;;28.79;49.78;95005.69;5033345;28;20724;-78
2022/06/01 07:52:54;;;;;;;27.40;12.32;;;;;;;28.64;50.67;94993.41;5030773;28;20168;-78
2022/06/01 07:55:19;;;;;;;20.20;12.90;;;;;;;28.68;49.50;95002.50;5033134;28;20174;-78
2022/06/01 07:57:45;;;;;;;24.02;12.25;;;;;;;28.50;51.53;94993.59;5033004;28;20183;-78
2022/06/01 08:00:11;;;;;;;27.88;14.10;;;;;;;28.73;50.89;95002.31;5034526;28;20202;-79
2022/06/01 08:02:38;;;;;;;17.58;11.88;;;;;;;29.02;50.97;95009.78;5032261;28;20195;-79
2022/06/01 08:05:05;;;;;;;23.75;11.90;;;;;;;29.10;51.15;95011.66;5035342;28;20206;-81
2022/06/01 08:07:30;;;;;;;24.33;11.30;;;;;;;29.15;50.87;94997.13;5032585;28;20179;-78
2022/06/01 08:09:56;;;;;;;17.08;11.32;;;;;;;29.42;51.13;95013.00;5032660;28;20243;-80
2022/06/01 08:15:06;;;;;;;25.73;11.88;;;;;;;29.00;50.12;95003.06;5027172;28;20195;-79
2022/06/01 08:17:31;;;;;;;23.65;12.73;;;;;;;28.65;49.49;94992.28;5031515;28;20249;-80
2022/06/01 08:19:56;;;;;;;24.30;11.18;;;;;;;28.73;51.85;94999.59;5026766;28;20171;-79
2022/06/01 08:22:22;;;;;;;18.55;10.45;;;;;;;28.96;52.06;95005.66;5032448;28;20198;-79
2022/06/01 08:24:47;;;;;;;20.20;11.48;;;;;;;29.13;50.66;95002.09;5032282;28;20639;-79
2022/06/01 08:27:13;;;;;;;18.48;10.75;;;;;;;28.94;52.00;94977.25;5032301;28;20664;-79
2022/06/01 08:29:38;;;;;;;22.10;10.35;;;;;;;29.27;51.89;94994.53;5032325;28;20561;-79
2022/06/01 08:32:04;;;;;;;19.20;10.18;;;;;;;29.34;49.31;95005.66;5032420;28;20183;-79
2022/06/01 08:34:31;;;;;;;15.70;10.23;;;;;;;29.45;50.59;95003.44;5032338;28;20249;-77
2022/06/01 08:36:56;;;;;;;23.38;10.13;;;;;;;29.57;49.18;95004.34;5031988;28;20643;-78
2022/06/01 08:39:21;;;;;;;17.17;9.85;;;;;;;29.72;50.43;95000.25;5030756;28;20195;-77
2022/06/01 08:41:47;;;;;;;20.73;9.10;;;;;;;29.62;48.68;94993.28;5031624;28;20199;-79
2022/06/01 08:44:24;;;;;;;15.70;8.77;;;;;;;29.62;48.68;95000.63;5029788;28;20209;-79
2022/06/01 08:46:52;;;;;;;17.83;8.75;;;;;;;29.50;49.51;94985.03;5031838;28;20176;-79
2022/06/01 08:49:27;;;;;;;19.58;8.73;;;;;;;29.27;48.76;94960.06;5029801;28;20187;-79
2022/06/01 08:51:53;;;;;;;22.25;9.80;;;;;;;29.28;47.18;94996.13;5025955;28;20175;-78
2022/06/01 08:54:19;;;;;;;16.65;9.57;;;;;;;29.19;49.34;94989.94;5031867;28;20193;-78
2022/06/01 08:56:51;;;;;;;12.07;8.43;;;;;;;29.03;47.93;94986.16;5031464;28;20183;-78
2022/06/01 09:00:07;;;;;;;19.90;8.57;;;;;;;28.91;47.66;95003.09;5031658;28;20258;-79
2022/06/01 09:02:45;;;;;;;16.00;7.85;;;;;;;28.50;48.96;94990.06;5013663;28;20220;-81
2022/06/01 09:05:23;;;;;;;14.85;8.55;;;;;;;28.31;49.48;95000.44;5028208;28;20222;-79
2022/06/01 09:07:59;;;;;;;18.95;8.55;;;;;;;27.92;52.47;94945.31;5023553;28;20167;-80
2022/06/01 09:10:53;;;;;;;11.95;6.88;;;;;;;28.04;50.98;94996.91;5027306;28;20178;-81
2022/06/01 09:13:25;;;;;;;11.68;5.95;;;;;;;28.02;53.88;94990.22;5031251;28;20179;-79
2022/06/01 09:15:58;;;;;;;10.93;6.78;;;;;;;28.09;50.29;94993.25;5031430;28;20238;-80
2022/06/01 09:18:27;;;;;;;7.60;5.80;;;;;;;28.20;50.88;94994.53;5031515;28;20176;-81
2022/06/01 09:23:38;;;;;;;11.88;5.65;;;;;;;28.20;48.00;94996.44;5031408;28;20206;-81
2022/06/01 09:26:05;;;;;;;14.52;5.25;;;;;;;28.17;48.11;94972.72;5012501;28;20237;-80
2022/06/01 09:28:39;;;;;;;9.77;5.10;;;;;;;28.16;47.92;94971.94;5030847;28;20179;-80
2022/06/01 09:31:19;;;;;;;12.80;5.50;;;;;;;28.19;53.73;94982.13;5031161;28;20314;-81
2022/06/01 09:33:44;;;;;;;13.70;5.60;;;;;;;28.14;50.85;94971.41;5028766;28;20246;-81
2022/06/01 09:36:10;;;;;;;12.18;4.88;;;;;;;28.21;48.01;94976.38;5031614;28;20246;-82
2022/06/01 09:38:51;;;;;;;12.25;5.53;;;;;;;28.02;50.00;94961.22;5031976;28;20175;-79
2022/06/01 09:41:19;;;;;;;11.27;4.85;;;;;;;27.94;45.99;94972.03;5031634;28;20207;-79
2022/06/01 09:43:55;;;;;;;11.88;5.43;;;;;;;27.68;46.79;94966.59;5031632;28;20172;-80
2022/06/01 09:46:35;;;;;;;8.65;5.25;;;;;;;27.55;48.02;94962.13;5013752;28;20168;-79
2022/06/01 09:49:09;;;;;;;10.73;5.13;;;;;;;27.37;48.69;94972.88;5031701;28;20678;-81
2022/06/01 09:51:38;;;;;;;8.02;4.40;;;;;;;27.00;48.64;94930.09;5031294;28;20203;-82
2022/06/01 09:54:30;;;;;;;12.60;6.63;;;;;;;27.14;49.42;94968.66;5031444;28;20221;-80
2022/06/01 09:56:56;;;;;;;10.73;5.15;;;;;;;26.89;51.38;94942.28;5029501;28;20194;-80
2022/06/01 10:08:03;;;;;;;10.52;4.13;;;;;;;27.04;51.87;94936.50;5034181;28;20163;-82
2022/06/01 10:10:29;;;;;;;10.93;3.92;;;;;;;26.98;53.46;94908.03;5035519;28;20239;-82
2022/06/01 10:12:58;;;;;;;12.07;4.40;;;;;;;27.22;46.03;94951.66;5035494;28;20183;-82
2022/06/01 10:15:37;;;;;;;10.23;5.50;;;;;;;27.19;46.52;94955.00;5035172;28;20176;-82
2022/06/01 10:18:30;;;;;;;8.27;3.58;;;;;;;26.94;48.48;94918.66;5035075;28;20156;-82
2022/06/01 10:21:12;;;;;;;6.13;2.83;;;;;;;27.12;44.49;94954.66;5030938;28;20215;-82
2022/06/01 10:23:55;;;;;;;6.65;3.45;;;;;;;27.08;50.02;94947.47;5034778;28;20207;-82
2022/06/01 10:26:23;;;;;;;9.60;3.55;;;;;;;27.03;47.52;94946.50;5030431;28;20544;-82
2022/06/01 10:28:54;;;;;;;10.38;3.50;;;;;;;26.97;45.54;94949.66;5016811;28;20172;-82
2022/06/01 10:31:38;;;;;;;4.95;3.03;;;;;;;26.96;43.97;94951.56;5034342;28;20215;-82
2022/06/01 10:34:03;;;;;;;3.88;2.80;;;;;;;26.97;45.63;94946.97;5031838;28;20168;-82
2022/06/01 10:36:46;;;;;;;8.88;2.80;;;;;;;27.00;46.47;94946.31;5034428;28;20183;-82
2022/06/01 10:39:42;;;;;;;3.08;2.35;;;;;;;27.07;41.88;94954.78;5034597;28;20159;-83
2022/06/01 10:49:29;;;;;;;5.32;3.22;;;;;;;26.45;48.06;94935.88;5034785;28;20213;-82
2022/06/01 10:52:06;;;;;;;15.15;3.50;;;;;;;26.59;45.22;94938.47;5034435;28;20160;-82
2022/06/01 10:54:44;;;;;;;6.28;2.80;;;;;;;26.65;44.28;94916.41;5034628;28;20164;-82
2022/06/01 10:57:15;;;;;;;5.35;2.47;;;;;;;26.96;43.41;94938.06;5034631;28;20163;-83
2022/06/01 10:59:40;;;;;;;5.13;2.47;;;;;;;27.07;45.46;94935.84;5016644;28;20175;-83
2022/06/01 11:02:22;;;;;;;9.98;3.30;;;;;;;27.17;44.88;94930.16;5016498;28;20188;-82
2022/06/01 11:05:25;;;;;;;5.68;2.88;;;;;;;27.25;41.31;94926.69;5034433;28;20596;-83
2022/06/01 11:08:05;;;;;;;5.45;2.50;;;;;;;27.09;42.06;94922.81;5016651;28;20186;-82
2022/06/01 11:11:03;;;;;;;8.88;3.17;;;;;;;26.94;43.78;94915.94;5034294;28;20172;-82
2022/06/01 11:14:09;;;;;;;4.97;2.70;;;;;;;27.06;43.22;94923.47;5033890;28;20168;-82
2022/06/01 11:16:44;;;;;;;10.60;3.10;;;;;;;27.18;43.24;94915.53;5030811;28;20250;-83
2022/06/01 11:19:45;;;;;;;7.47;3.00;;;;;;;27.13;42.98;94888.66;5028699;28;20178;-82
2022/06/01 11:22:16;;;;;;;5.88;2.70;;;;;;;27.30;44.18;94901.44;5033740;28;20179;-82
2022/06/01 11:24:42;;;;;;;5.82;2.55;;;;;;;27.54;43.59;94918.03;5034324;28;20180;-82
2022/06/01 11:27:13;;;;;;;8.55;2.63;;;;;;;27.61;44.58;94917.56;5016010;28;20895;-82
2022/06/01 11:29:56;;;;;;;8.88;3.05;;;;;;;27.69;44.50;94911.38;5033747;28;20180;-82
2022/06/01 11:32:28;;;;;;;10.75;2.20;;;;;;;27.78;43.89;94907.56;5033580;28;20593;-83
2022/06/01 11:35:37;;;;;;;5.70;3.17;;;;;;;27.88;43.79;94906.44;5033656;28;20190;-82
2022/06/01 11:38:24;;;;;;;7.60;2.55;;;;;;;27.77;43.94;94888.94;4934457;29;20183;-82
2022/06/01 11:40:55;;;;;;;10.40;2.67;;;;;;;27.86;44.16;94897.84;5032141;28;20717;-83
2022/06/01 11:43:24;;;;;;;8.00;2.85;;;;;;;27.71;46.19;94868.56;5033746;28;20278;-83
2022/06/01 11:45:57;;;;;;;5.78;2.63;;;;;;;28.04;45.62;94901.34;5033416;28;20215;-83
2022/06/01 11:48:30;;;;;;;8.45;2.55;;;;;;;28.19;44.59;94905.53;5033452;28;20230;-83
2022/06/01 11:51:19;;;;;;;4.50;2.10;;;;;;;28.22;40.18;94910.28;5033354;28;20156;-82
2022/06/01 11:53:56;;;;;;;7.22;2.80;;;;;;;28.27;41.36;94896.59;5033592;28;20159;-83
2022/06/01 11:56:52;;;;;;;8.18;3.13;;;;;;;28.26;43.55;94895.00;5015516;28;20661;-83
2022/06/01 11:59:25;;;;;;;4.43;2.22;;;;;;;28.32;41.25;94891.00;5031202;28;20163;-83
2022/06/01 12:02:03;;;;;;;3.10;2.13;;;;;;;28.26;41.91;94876.03;5032873;28;20195;-82
2022/06/01 12:04:50;;;;;;;6.70;2.60;;;;;;;28.40;42.50;94899.09;5011849;28;20651;-83
2022/06/01 12:07:17;;;;;;;4.85;2.30;;;;;;;28.42;39.22;94888.75;5033344;28;20191;-82
2022/06/01 12:09:49;;;;;;;5.57;2.30;;;;;;;28.33;39.68;94879.03;5033012;28;20179;-83
2022/06/01 12:12:33;;;;;;;4.55;2.08;;;;;;;28.45;37.22;94892.72;5015471;28;20171;-83